Time;durP1;ratioP1;P1;durP2;ratioP2;P2;SDS_P1;SDS_P2;PMS_P1;PMS_P2;Temp;Humidity;BMP_temperature;BMP_pressure;BME280_temperature;BME280_humidity;BME280_pressure;Samples;Min_cycle;Max_cycle;Signal;HPM_P1;HPM_P2
2022/06/16 00:01:13;;;;;;;0.62;0.50;;;;;;;16.80;53.71;100585.98;1652718;85;21070;-71
2022/06/16 00:03:39;;;;;;;2.20;0.80;;;;;;;16.79;53.63;100587.02;1667746;85;21558;-70
2022/06/16 00:06:05;;;;;;;0.93;0.53;;;;;;;16.78;53.86;100583.19;1683445;85;21166;-71
2022/06/16 00:08:31;;;;;;;;;;;;;;;16.77;53.82;100589.11;1675919;84;21103;-70
2022/06/16 00:13:44;;;;;;;0.70;0.40;;;;;;;16.69;54.40;100586.19;1662164;85;20986;-71
2022/06/16 00:16:12;;;;;;;0.37;0.37;;;;;;;16.69;54.21;100588.06;1657236;85;21070;-68
2022/06/16 00:18:41;;;;;;;1.32;0.47;;;;;;;16.71;54.12;100586.78;1673952;85;21003;-70
2022/06/16 00:21:09;;;;;;;1.35;0.30;;;;;;;16.73;54.12;100583.88;1670007;85;21050;-68
2022/06/16 00:23:37;;;;;;;1.05;0.37;;;;;;;16.70;54.30;100581.09;1672537;85;21130;-71
2022/06/16 00:26:04;;;;;;;1.40;0.33;;;;;;;16.69;54.27;100582.68;1665308;85;21121;-71
2022/06/16 00:28:30;;;;;;;0.40;0.20;;;;;;;16.67;54.21;100572.13;1684438;84;21093;-72
2022/06/16 00:31:05;;;;;;;0.82;0.53;;;;;;;16.64;54.50;100575.79;1681704;84;21070;-75
2022/06/16 00:33:33;;;;;;;2.05;0.47;;;;;;;16.63;54.64;100572.78;1673368;84;21069;-73
2022/06/16 00:36:01;;;;;;;0.47;0.40;;;;;;;16.66;54.62;100580.42;1673524;84;21022;-67
2022/06/16 00:38:28;;;;;;;0.30;0.20;;;;;;;16.66;54.51;100581.77;1705044;84;21070;-73
2022/06/16 00:40:54;;;;;;;0.53;0.30;;;;;;;16.58;54.58;100586.10;1664770;84;21034;-74
2022/06/16 00:43:21;;;;;;;1.92;0.30;;;;;;;16.58;54.58;100586.10;1657677;84;21075;-73
2022/06/16 00:46:01;;;;;;;1.05;0.40;;;;;;;16.52;54.99;100583.25;1664288;86;21011;-73
2022/06/16 00:48:51;;;;;;;0.78;0.30;;;;;;;16.51;55.33;100582.93;1686525;84;21126;-71
2022/06/16 00:51:23;;;;;;;0.60;0.55;;;;;;;16.47;55.44;100585.77;1685560;84;21035;-70
2022/06/16 00:53:52;;;;;;;1.95;0.40;;;;;;;16.36;56.19;100591.88;1676142;84;21188;-72
2022/06/16 00:56:20;;;;;;;2.35;0.70;;;;;;;16.36;56.19;100591.88;1681967;84;21547;-71
2022/06/16 00:58:52;;;;;;;1.42;0.30;;;;;;;16.36;56.66;100595.91;1659588;84;21166;-70
2022/06/16 01:01:23;;;;;;;1.95;0.60;;;;;;;16.34;56.54;100594.77;1668072;84;21065;-70
2022/06/16 01:06:36;;;;;;;2.20;0.37;;;;;;;16.30;56.52;100591.41;1673136;84;21109;-71
2022/06/16 01:09:19;;;;;;;1.30;0.55;;;;;;;16.20;56.92;100599.98;1682745;84;21175;-71
2022/06/16 01:15:21;;;;;;;1.67;0.68;;;;;;;16.18;57.27;100595.84;1646830;85;21090;-71
2022/06/16 01:18:02;;;;;;;0.60;0.60;;;;;;;16.16;57.39;100594.71;1677250;84;21058;-70
2022/06/16 01:20:46;;;;;;;5.55;0.70;;;;;;;16.16;57.26;100590.67;1675689;84;21115;-70
2022/06/16 01:23:27;;;;;;;1.10;0.53;;;;;;;16.20;56.90;100593.76;1670899;84;21107;-70
2022/06/16 01:26:02;;;;;;;1.10;0.50;;;;;;;16.24;56.76;100590.95;1666528;84;21515;-71
2022/06/16 01:28:47;;;;;;;3.17;0.82;;;;;;;16.27;56.24;100587.80;1669514;84;21797;-70
2022/06/16 01:31:28;;;;;;;4.47;0.80;;;;;;;16.25;56.20;100593.40;1671101;84;21574;-72
2022/06/16 01:34:04;;;;;;;4.85;0.80;;;;;;;16.23;56.15;100590.64;1675365;84;21549;-73
2022/06/16 01:37:00;;;;;;;0.40;0.30;;;;;;;16.17;56.23;100584.80;1669488;84;21078;-71
2022/06/16 01:39:49;;;;;;;2.15;0.62;;;;;;;16.17;56.23;100584.80;1675066;84;21134;-71
2022/06/16 01:42:23;;;;;;;2.58;1.12;;;;;;;16.19;56.24;100588.09;1669797;85;21066;-70
2022/06/16 01:45:11;;;;;;;2.22;0.68;;;;;;;16.19;56.38;100587.56;1667656;84;21044;-69
2022/06/16 01:47:42;;;;;;;2.67;0.80;;;;;;;16.13;56.79;100585.23;1672799;84;21121;-72
2022/06/16 01:50:13;;;;;;;1.55;0.78;;;;;;;15.82;57.07;100544.93;1656903;86;21127;-70
2022/06/16 01:52:55;;;;;;;1.72;1.10;;;;;;;16.09;57.29;100589.93;1675900;84;21052;-70
2022/06/16 01:55:32;;;;;;;1.10;0.68;;;;;;;16.10;57.37;100586.18;1638461;85;21160;-71
2022/06/16 01:58:08;;;;;;;1.15;0.60;;;;;;;16.11;57.46;100583.28;1666116;84;21097;-71
2022/06/16 02:00:36;;;;;;;1.35;0.82;;;;;;;16.12;57.30;100588.98;1660907;84;21038;-70
2022/06/16 02:03:08;;;;;;;2.17;0.90;;;;;;;16.11;57.15;100585.16;1663492;84;21548;-71
2022/06/16 02:05:54;;;;;;;0.57;0.57;;;;;;;16.14;57.40;100586.89;1670739;84;21169;-70
2022/06/16 02:08:32;;;;;;;2.35;0.95;;;;;;;16.23;57.15;100591.98;1670563;84;21565;-70
2022/06/16 02:11:17;;;;;;;0.62;0.50;;;;;;;16.25;57.02;100592.05;1681846;84;21499;-72
2022/06/16 02:14:07;;;;;;;3.00;1.37;;;;;;;16.26;57.08;100592.91;1687476;84;21169;-72
2022/06/16 02:16:36;;;;;;;1.55;0.82;;;;;;;16.22;57.26;100584.95;1650163;85;21588;-71
2022/06/16 02:19:12;;;;;;;0.50;0.50;;;;;;;16.32;57.54;100592.02;1685233;84;21015;-71
2022/06/16 02:21:43;;;;;;;2.35;1.12;;;;;;;16.56;57.33;100595.73;1648215;86;21169;-69
2022/06/16 02:24:13;;;;;;;1.85;0.90;;;;;;;16.91;56.65;100597.39;1674639;84;21058;-70
2022/06/16 02:26:43;;;;;;;2.37;0.80;;;;;;;17.34;55.79;100602.89;1675080;85;21008;-71
2022/06/16 02:29:37;;;;;;;1.15;0.95;;;;;;;17.79;54.84;100603.31;1680441;85;21085;-70
2022/06/16 02:32:19;;;;;;;0.78;0.60;;;;;;;18.25;53.37;100604.52;1678920;85;21514;-71
2022/06/16 02:34:57;;;;;;;1.65;0.60;;;;;;;18.76;52.14;100609.44;1664670;85;21018;-71
2022/06/16 02:37:58;;;;;;;1.02;0.50;;;;;;;19.19;50.81;100607.72;1667035;85;21101;-70
2022/06/16 02:40:49;;;;;;;2.27;0.50;;;;;;;19.52;49.63;100606.73;1667475;85;21114;-72
2022/06/16 02:43:47;;;;;;;2.83;0.50;;;;;;;19.88;49.16;100608.23;1677744;84;22270;-69
2022/06/16 02:46:35;;;;;;;1.95;0.57;;;;;;;20.30;48.58;100602.97;1643531;86;21624;-70
2022/06/16 02:49:45;;;;;;;0.57;0.45;;;;;;;20.74;47.40;100599.88;1675537;85;21054;-69
2022/06/16 02:52:34;;;;;;;1.30;0.70;;;;;;;21.19;46.08;100605.63;1684154;84;21066;-70
2022/06/16 02:55:23;;;;;;;1.12;0.55;;;;;;;21.61;43.91;100608.84;1672192;85;21052;-70
2022/06/16 02:57:57;;;;;;;1.42;0.98;;;;;;;21.66;43.74;100606.16;1670759;85;21130;-71
2022/06/16 03:00:39;;;;;;;1.47;0.62;;;;;;;21.80;43.46;100607.39;1673345;84;21025;-73
2022/06/16 03:03:24;;;;;;;2.60;0.40;;;;;;;21.96;43.36;100606.47;1669191;84;21450;-70
2022/06/16 03:05:55;;;;;;;2.87;0.60;;;;;;;22.25;42.78;100609.42;1662529;84;21640;-71
2022/06/16 03:08:25;;;;;;;1.52;1.12;;;;;;;22.58;42.02;100608.86;1683376;84;21145;-70
2022/06/16 03:10:54;;;;;;;2.52;1.40;;;;;;;22.89;40.81;100605.25;1662160;84;21525;-70
2022/06/16 03:13:25;;;;;;;3.75;2.15;;;;;;;23.09;40.48;100604.57;1645463;84;21525;-70
2022/06/16 03:15:54;;;;;;;1.32;1.22;;;;;;;23.28;40.44;100610.88;1674406;84;21049;-71
2022/06/16 03:18:23;;;;;;;3.02;1.90;;;;;;;23.48;39.64;100606.86;1669696;84;21105;-71
2022/06/16 03:20:52;;;;;;;1.82;1.70;;;;;;;23.66;39.35;100611.55;1670412;84;21532;-70
2022/06/16 03:23:20;;;;;;;2.33;2.22;;;;;;;23.78;38.92;100603.94;1663918;84;21192;-71
2022/06/16 03:25:48;;;;;;;3.17;1.77;;;;;;;23.81;38.74;100608.04;1671347;85;21054;-70
2022/06/16 03:28:15;;;;;;;4.22;2.52;;;;;;;23.86;38.91;100610.78;1667260;85;21067;-71
2022/06/16 03:30:44;;;;;;;8.53;3.05;;;;;;;23.89;38.41;100608.89;1668330;85;21462;-71
2022/06/16 03:33:13;;;;;;;4.62;2.90;;;;;;;23.89;38.37;100604.25;1672691;85;21166;-70
2022/06/16 03:35:41;;;;;;;5.08;3.45;;;;;;;23.86;38.81;100604.78;1683322;84;21086;-70
2022/06/16 03:38:16;;;;;;;5.28;3.67;;;;;;;24.08;38.64;100603.72;1672853;84;22075;-68
2022/06/16 03:40:42;;;;;;;3.92;3.62;;;;;;;24.28;37.93;100609.17;1666571;85;21522;-70
2022/06/16 03:43:08;;;;;;;3.55;3.22;;;;;;;24.33;37.84;100612.42;1668734;84;21092;-70
2022/06/16 03:45:37;;;;;;;4.37;3.25;;;;;;;24.41;37.59;100605.60;1652626;85;21137;-70
2022/06/16 03:48:06;;;;;;;4.05;3.75;;;;;;;24.59;37.46;100606.42;1670277;84;21094;-71
2022/06/16 03:50:34;;;;;;;10.45;9.35;;;;;;;24.73;36.89;100606.66;1659205;85;21065;-71
2022/06/16 03:53:04;;;;;;;8.73;7.92;;;;;;;24.64;37.56;100607.78;1659228;85;21514;-70
2022/06/16 03:55:31;;;;;;;6.35;5.75;;;;;;;24.84;37.47;100608.27;1639857;85;21110;-70
2022/06/16 03:57:58;;;;;;;9.95;8.38;;;;;;;25.26;36.28;100603.52;1708881;84;21149;-71
2022/06/16 04:00:27;;;;;;;7.35;6.65;;;;;;;25.48;36.32;100607.77;1660862;85;21067;-70
2022/06/16 04:05:43;;;;;;;10.55;9.50;;;;;;;25.65;35.03;100598.65;1697836;84;21062;-69
2022/06/16 04:08:13;;;;;;;5.33;3.08;;;;;;;25.75;35.34;100604.06;1682949;84;21113;-69
2022/06/16 04:10:41;;;;;;;3.33;3.02;;;;;;;25.93;34.43;100605.87;1665523;84;21599;-71
2022/06/16 04:13:09;;;;;;;4.53;3.67;;;;;;;25.92;34.26;100599.59;1666385;83;21065;-68
2022/06/16 04:15:36;;;;;;;2.60;2.40;;;;;;;25.88;34.51;100605.34;1677042;84;21086;-70
2022/06/16 04:18:04;;;;;;;3.47;2.87;;;;;;;26.00;33.88;100602.27;1661633;84;21157;-70
2022/06/16 04:20:34;;;;;;;3.33;2.25;;;;;;;26.13;33.90;100604.34;1654041;85;21133;-69
2022/06/16 04:23:03;;;;;;;2.83;2.22;;;;;;;26.14;34.18;100611.98;1657972;85;21199;-69
2022/06/16 04:25:33;;;;;;;2.22;2.02;;;;;;;26.01;33.69;100610.70;1675228;84;21054;-70
2022/06/16 04:28:04;;;;;;;3.10;2.42;;;;;;;25.86;34.36;100606.70;1671508;85;21684;-69
2022/06/16 04:30:34;;;;;;;2.83;1.77;;;;;;;25.89;34.25;100612.97;1668822;84;21613;-68
2022/06/16 04:33:02;;;;;;;7.95;2.60;;;;;;;25.97;33.94;100608.28;1659099;84;21082;-70
2022/06/16 04:35:31;;;;;;;2.65;2.17;;;;;;;26.09;33.91;100610.64;1670636;85;21101;-72
2022/06/16 04:37:59;;;;;;;4.30;2.02;;;;;;;26.21;33.59;100610.55;1668985;85;21089;-72
2022/06/16 04:40:26;;;;;;;2.27;1.80;;;;;;;26.15;33.83;100611.70;1666355;85;21006;-70
2022/06/16 04:42:54;;;;;;;3.77;2.15;;;;;;;26.13;34.02;100612.53;1664931;85;21078;-70
2022/06/16 04:45:22;;;;;;;1.82;1.27;;;;;;;26.19;33.09;100611.94;1667858;85;21634;-69
2022/06/16 04:47:49;;;;;;;4.65;1.82;;;;;;;26.15;32.89;100610.33;1665260;85;21163;-70
2022/06/16 04:50:18;;;;;;;3.17;2.08;;;;;;;26.20;32.71;100619.02;1667119;84;21054;-70
2022/06/16 04:52:48;;;;;;;4.03;2.55;;;;;;;26.14;32.97;100613.34;1662617;85;21089;-73
2022/06/16 04:55:18;;;;;;;4.80;3.50;;;;;;;26.13;32.83;100621.29;1659146;84;21066;-69
2022/06/16 04:58:06;;;;;;;3.45;2.72;;;;;;;25.94;33.19;100612.97;1655885;84;21117;-69
2022/06/16 05:00:38;;;;;;;4.12;2.98;;;;;;;25.93;32.85;100616.23;1664322;85;21066;-69
2022/06/16 05:03:10;;;;;;;6.10;3.83;;;;;;;25.78;32.97;100623.14;1654587;85;21080;-67
2022/06/16 05:05:41;;;;;;;3.85;2.40;;;;;;;25.53;33.44;100616.74;1653247;86;21606;-69
2022/06/16 05:08:28;;;;;;;5.25;2.95;;;;;;;25.29;34.08;100624.77;1675771;85;21074;-72
2022/06/16 05:10:57;;;;;;;2.92;2.47;;;;;;;25.08;34.17;100618.56;1669896;85;21123;-70
2022/06/16 05:13:36;;;;;;;4.42;2.92;;;;;;;24.89;34.83;100616.18;1672811;85;21111;-70
2022/06/16 05:16:07;;;;;;;4.55;2.87;;;;;;;24.82;34.89;100621.91;1653699;85;21186;-70
2022/06/16 05:18:41;;;;;;;4.62;2.55;;;;;;;24.77;35.07;100627.37;1622965;85;21610;-70
2022/06/16 05:21:15;;;;;;;5.75;3.65;;;;;;;24.89;34.88;100626.53;1662650;85;21101;-69
2022/06/16 05:23:45;;;;;;;9.55;5.50;;;;;;;24.86;34.78;100625.71;1640391;85;21121;-70
2022/06/16 05:26:30;;;;;;;5.50;3.17;;;;;;;24.71;35.25;100631.20;1660685;84;21126;-68
2022/06/16 05:28:58;;;;;;;3.67;3.33;;;;;;;24.62;35.46;100630.94;1637998;86;21196;-71
2022/06/16 05:31:27;;;;;;;5.08;3.02;;;;;;;24.78;35.62;100626.29;1670467;85;21549;-71
2022/06/16 05:33:56;;;;;;;5.05;3.35;;;;;;;25.03;35.24;100628.95;1664878;84;21542;-71
2022/06/16 05:36:32;;;;;;;4.60;3.42;;;;;;;25.24;34.70;100626.15;1606890;87;21109;-69
2022/06/16 05:39:17;;;;;;;3.95;2.80;;;;;;;25.46;34.34;100618.95;1682978;84;21612;-69
2022/06/16 05:41:50;;;;;;;4.83;2.55;;;;;;;25.50;33.89;100626.04;1641487;86;21100;-70
2022/06/16 05:44:33;;;;;;;3.60;3.27;;;;;;;25.54;33.35;100628.47;1646842;85;21171;-71
2022/06/16 05:47:01;;;;;;;6.58;3.77;;;;;;;25.13;34.27;100639.00;1687662;84;21015;-72
2022/06/16 05:49:31;;;;;;;7.22;3.98;;;;;;;24.77;35.62;100636.91;1698123;84;21079;-74
2022/06/16 05:52:00;;;;;;;7.83;4.60;;;;;;;24.60;35.80;100636.69;1683985;84;21388;-76
2022/06/16 05:54:28;;;;;;;6.00;5.10;;;;;;;24.58;35.66;100629.34;1688353;84;21178;-77
2022/06/16 05:56:54;;;;;;;7.37;5.03;;;;;;;24.73;36.22;100636.64;1669225;85;21133;-76
2022/06/16 05:59:20;;;;;;;4.25;3.85;;;;;;;24.73;36.22;100636.64;1659575;85;21098;-76
2022/06/16 06:01:49;;;;;;;8.93;3.83;;;;;;;24.97;34.86;100631.96;1678161;84;21082;-78
2022/06/16 06:04:16;;;;;;;3.50;3.17;;;;;;;25.16;34.61;100634.89;1683373;84;21092;-80
2022/06/16 06:06:44;;;;;;;7.30;3.75;;;;;;;25.25;34.92;100628.60;1669592;84;21035;-79
2022/06/16 06:17:37;;;;;;;2.75;2.30;;;;;;;25.26;33.80;100623.98;1679645;84;20171;-77
2022/06/16 06:20:05;;;;;;;2.35;2.12;;;;;;;25.24;33.93;100626.15;1695921;84;21659;-76
2022/06/16 06:22:32;;;;;;;1.37;0.90;;;;;;;25.22;33.71;100628.31;1701365;83;21578;-79
2022/06/16 06:25:00;;;;;;;4.62;0.70;;;;;;;25.19;33.51;100627.52;1678212;84;21113;-78
2022/06/16 06:27:39;;;;;;;1.67;0.53;;;;;;;25.19;33.84;100630.25;1662030;85;21599;-74
2022/06/16 06:30:12;;;;;;;1.12;0.70;;;;;;;25.11;33.77;100631.65;1674489;84;21421;-73
2022/06/16 06:32:40;;;;;;;0.95;0.60;;;;;;;25.02;34.09;100638.21;1678139;85;21062;-74
2022/06/16 06:35:07;;;;;;;2.33;1.07;;;;;;;25.11;33.62;100640.36;1681807;85;21046;-74
2022/06/16 06:37:34;;;;;;;1.92;0.82;;;;;;;25.18;33.26;100634.06;1672111;83;21578;-75
2022/06/16 06:40:00;;;;;;;2.65;1.47;;;;;;;25.09;33.55;100637.94;1673599;84;21066;-73
2022/06/16 06:42:26;;;;;;;2.52;1.80;;;;;;;25.20;33.57;100635.95;1677145;85;21015;-76
2022/06/16 06:44:54;;;;;;;2.02;0.98;;;;;;;25.44;33.03;100639.70;1674861;85;21165;-76
2022/06/16 06:47:26;;;;;;;4.55;1.40;;;;;;;25.55;32.84;100638.30;1677409;85;21098;-75
2022/06/16 06:49:53;;;;;;;3.20;2.05;;;;;;;25.50;32.79;100633.66;1677469;84;21030;-74
2022/06/16 06:52:21;;;;;;;2.33;1.30;;;;;;;25.63;33.14;100630.88;1682790;84;21051;-78
2022/06/16 06:54:47;;;;;;;1.70;1.25;;;;;;;25.73;31.67;100640.38;1674881;85;21136;-75
2022/06/16 06:57:20;;;;;;;3.12;1.77;;;;;;;25.59;32.23;100637.44;1680020;84;21154;-76
2022/06/16 06:59:48;;;;;;;4.85;1.67;;;;;;;25.55;32.58;100630.92;1700717;84;21155;-74
2022/06/16 07:02:16;;;;;;;2.52;2.20;;;;;;;25.52;32.20;100630.66;1691670;83;21559;-74
2022/06/16 07:04:44;;;;;;;2.83;2.15;;;;;;;25.32;32.77;100630.23;1678663;85;21094;-76
2022/06/16 07:07:14;;;;;;;2.20;1.90;;;;;;;25.32;33.20;100636.50;1663428;85;21054;-73
2022/06/16 07:09:42;;;;;;;2.22;2.00;;;;;;;25.45;32.39;100641.91;1677848;85;21079;-76
2022/06/16 07:12:13;;;;;;;3.33;2.05;;;;;;;25.51;32.51;100629.05;1660275;85;21055;-76
2022/06/16 07:14:49;;;;;;;4.00;1.65;;;;;;;25.72;32.23;100625.09;1691824;84;21075;-75
2022/06/16 07:17:17;;;;;;;;;;;;;;;25.91;32.26;100626.59;1690027;84;21102;-76
2022/06/16 07:19:44;;;;;;;4.85;2.15;;;;;;;26.12;32.01;100623.74;1688229;84;20147;-78
2022/06/16 07:22:13;;;;;;;4.10;1.92;;;;;;;26.17;31.43;100627.25;1665785;84;21595;-78
2022/06/16 07:24:40;;;;;;;1.85;1.62;;;;;;;26.15;31.06;100619.08;1699567;84;21101;-77
2022/06/16 07:27:08;;;;;;;5.00;1.85;;;;;;;26.03;31.56;100619.43;1680369;84;21086;-77
2022/06/16 07:29:36;;;;;;;3.95;2.37;;;;;;;26.05;31.47;100617.26;1684468;84;21569;-77
2022/06/16 07:32:05;;;;;;;1.80;1.70;;;;;;;26.13;31.47;100615.83;1677988;84;21087;-78
2022/06/16 07:34:32;;;;;;;3.42;1.98;;;;;;;26.16;31.20;100617.44;1687104;84;21094;-75
2022/06/16 07:37:01;;;;;;;5.17;2.83;;;;;;;26.08;31.60;100615.30;1688169;84;21053;-73
2022/06/16 07:39:27;;;;;;;3.30;2.50;;;;;;;25.95;31.21;100615.95;1678406;84;21627;-75
2022/06/16 07:41:53;;;;;;;3.87;2.30;;;;;;;25.42;31.85;100613.25;1689073;84;21041;-74
2022/06/16 07:44:19;;;;;;;5.55;2.98;;;;;;;24.97;32.90;100613.68;1678574;84;21070;-75
2022/06/16 07:46:47;;;;;;;4.03;3.05;;;;;;;24.65;33.50;100613.49;1678385;84;21055;-74
2022/06/16 07:49:25;;;;;;;3.75;3.12;;;;;;;24.47;33.68;100611.34;1694944;84;21027;-72
2022/06/16 07:51:52;;;;;;;2.98;2.60;;;;;;;24.35;34.10;100603.98;1690950;84;21602;-72
2022/06/16 07:54:19;;;;;;;4.00;2.42;;;;;;;24.37;34.33;100606.69;1681878;84;21038;-72
2022/06/16 07:56:46;;;;;;;4.08;2.15;;;;;;;24.46;34.07;100605.60;1683879;84;21083;-73
2022/06/16 07:59:14;;;;;;;4.35;1.95;;;;;;;24.48;34.05;100608.31;1680806;84;21134;-73
2022/06/16 08:01:41;;;;;;;4.10;2.20;;;;;;;24.42;34.26;100607.25;1679090;84;21070;-73
2022/06/16 08:04:08;;;;;;;0.75;0.30;;;;;;;24.31;34.33;100604.27;1689033;84;21085;-72
2022/06/16 08:06:36;;;;;;;1.80;0.70;;;;;;;24.18;33.86;100606.44;1689648;84;21039;-71
2022/06/16 08:09:06;;;;;;;1.85;0.85;;;;;;;24.01;34.18;100603.17;1694319;84;21081;-73
2022/06/16 08:14:18;;;;;;;1.12;0.50;;;;;;;23.65;34.85;100616.16;1689604;84;21045;-72
2022/06/16 08:16:45;;;;;;;1.52;0.47;;;;;;;23.45;34.86;100612.86;1693341;84;21006;-74
2022/06/16 08:19:12;;;;;;;2.50;0.68;;;;;;;23.33;35.12;100604.09;1689434;84;21058;-72
2022/06/16 08:21:38;;;;;;;1.02;0.40;;;;;;;23.32;35.45;100601.12;1689379;84;21142;-73
2022/06/16 08:24:06;;;;;;;3.22;0.40;;;;;;;23.43;35.05;100608.75;1686406;84;21580;-74
2022/06/16 08:26:34;;;;;;;1.05;0.28;;;;;;;23.51;34.46;100602.80;1695610;84;21113;-74
2022/06/16 08:29:01;;;;;;;1.42;0.23;;;;;;;23.54;34.55;100598.72;1695951;84;21061;-74
2022/06/16 08:31:27;;;;;;;2.42;0.30;;;;;;;23.65;34.24;100601.19;1678922;84;21093;-71
2022/06/16 08:33:55;;;;;;;3.05;0.70;;;;;;;23.78;33.45;100597.69;1688220;84;21953;-72
2022/06/16 08:36:22;;;;;;;2.25;0.35;;;;;;;23.87;33.13;100587.92;1677163;84;21060;-72
2022/06/16 08:38:49;;;;;;;3.58;1.35;;;;;;;23.98;33.02;100588.73;1675079;84;21582;-71
2022/06/16 08:41:29;;;;;;;1.15;0.30;;;;;;;24.14;33.47;100586.84;1687408;84;21093;-71
2022/06/16 08:44:24;;;;;;;0.88;0.70;;;;;;;24.33;33.39;100585.73;1689248;84;21058;-72
2022/06/16 08:47:11;;;;;;;3.20;1.10;;;;;;;24.44;32.40;100587.36;1686127;84;21071;-74
2022/06/16 08:50:07;;;;;;;3.62;0.42;;;;;;;24.39;32.72;100583.27;1691024;84;21208;-75
2022/06/16 08:53:06;;;;;;;1.35;0.85;;;;;;;24.34;33.09;100580.02;1696725;84;21159;-71
2022/06/16 08:56:01;;;;;;;2.92;1.05;;;;;;;24.28;33.81;100572.40;1697654;84;21168;-75
2022/06/16 08:59:07;;;;;;;1.77;1.22;;;;;;;24.20;33.58;100582.46;1695745;84;21037;-71
2022/06/16 09:01:45;;;;;;;4.28;2.55;;;;;;;24.02;34.63;100584.40;1686030;84;21687;-71
2022/06/16 09:04:25;;;;;;;2.65;1.02;;;;;;;24.01;34.45;100589.00;1699281;84;20990;-71
2022/06/16 09:07:19;;;;;;;3.42;0.72;;;;;;;24.04;33.73;100593.11;1689712;84;21121;-72
2022/06/16 09:10:18;;;;;;;2.98;1.30;;;;;;;24.01;33.77;100597.17;1694069;84;21573;-70
2022/06/16 09:13:17;;;;;;;1.40;1.30;;;;;;;23.86;34.70;100603.42;1646740;85;21225;-72
2022/06/16 09:16:01;;;;;;;1.62;0.93;;;;;;;23.72;34.68;100591.41;1654160;85;21138;-70
2022/06/16 09:18:39;;;;;;;1.57;1.20;;;;;;;23.69;34.71;100592.75;1649796;86;21085;-73
2022/06/16 09:21:30;;;;;;;5.20;1.10;;;;;;;23.67;34.72;100592.76;1660757;86;21063;-72
2022/06/16 09:24:10;;;;;;;5.45;2.58;;;;;;;23.69;34.94;100590.58;1684485;84;21016;-72
2022/06/16 09:29:12;;;;;;;1.75;0.90;;;;;;;23.71;33.83;100589.77;1768611;78;22785;-73
2022/06/16 09:31:56;;;;;;;2.65;1.05;;;;;;;23.55;34.07;100589.48;1751514;80;21038;-73
2022/06/16 09:34:27;;;;;;;2.70;0.95;;;;;;;23.51;34.50;100597.36;1694754;82;21032;-72
2022/06/16 09:37:09;;;;;;;3.02;1.05;;;;;;;23.51;34.64;100591.92;1708933;82;21536;-71
2022/06/16 09:39:44;;;;;;;1.25;0.42;;;;;;;23.58;34.49;100591.65;1722035;82;21011;-76
2022/06/16 09:42:37;;;;;;;2.27;0.65;;;;;;;23.64;34.15;100590.56;1711594;82;21609;-74
2022/06/16 09:45:32;;;;;;;1.00;0.60;;;;;;;23.69;34.49;100591.39;1695013;81;21623;-73
2022/06/16 09:48:28;;;;;;;2.98;0.90;;;;;;;23.67;34.14;100592.76;1662757;85;21059;-72
2022/06/16 09:51:11;;;;;;;1.70;0.50;;;;;;;23.60;34.56;100594.91;1658558;85;21143;-74
2022/06/16 09:53:48;;;;;;;1.45;0.50;;;;;;;23.66;34.31;100595.22;1650430;85;21029;-71
2022/06/16 09:56:29;;;;;;;2.75;0.72;;;;;;;23.74;34.25;100598.77;1672924;83;21474;-72
2022/06/16 09:59:20;;;;;;;1.35;0.60;;;;;;;23.84;34.13;100599.34;1687737;83;21041;-72
2022/06/16 10:02:02;;;;;;;2.35;0.53;;;;;;;23.98;34.16;100603.70;1669996;83;21731;-74
2022/06/16 10:04:28;;;;;;;1.57;0.55;;;;;;;24.05;33.43;100597.45;1664022;84;21070;-75
2022/06/16 10:07:27;;;;;;;3.47;0.90;;;;;;;24.15;33.38;100596.63;1674512;84;20999;-74
2022/06/16 10:10:17;;;;;;;0.98;0.50;;;;;;;24.25;33.51;100589.28;1678919;84;21335;-73
2022/06/16 10:12:53;;;;;;;3.00;0.70;;;;;;;24.34;33.40;100585.47;1681060;83;21019;-73
2022/06/16 10:15:28;;;;;;;2.30;0.72;;;;;;;24.39;33.27;100581.38;1702584;83;21016;-72
2022/06/16 10:17:58;;;;;;;0.55;0.30;;;;;;;24.38;32.72;100573.48;1703813;83;21158;-73
2022/06/16 10:20:25;;;;;;;4.85;1.17;;;;;;;24.35;32.46;100577.55;1702464;83;21038;-73
2022/06/16 10:23:00;;;;;;;1.45;0.42;;;;;;;24.35;33.17;100579.47;1692384;83;21051;-74
2022/06/16 10:25:34;;;;;;;1.82;0.50;;;;;;;24.41;33.16;100568.82;1703606;83;21119;-73
2022/06/16 10:28:30;;;;;;;2.05;0.70;;;;;;;24.46;33.09;100567.46;1693417;83;21068;-73
2022/06/16 10:31:00;;;;;;;2.22;0.33;;;;;;;24.55;33.20;100568.56;1681481;83;21032;-75
2022/06/16 10:33:33;;;;;;;0.90;0.35;;;;;;;24.55;33.36;100567.20;1689835;83;21032;-75
2022/06/16 10:36:14;;;;;;;0.70;0.33;;;;;;;24.49;33.72;100566.36;1695670;83;21098;-76
2022/06/16 10:38:45;;;;;;;1.95;0.30;;;;;;;24.55;33.60;100569.12;1693599;83;21111;-74
2022/06/16 10:41:32;;;;;;;0.95;0.65;;;;;;;24.60;32.93;100559.55;1682713;83;21182;-72
2022/06/16 10:44:03;;;;;;;0.62;0.62;;;;;;;24.50;32.96;100560.36;1681942;83;21633;-73
2022/06/16 10:46:36;;;;;;;1.30;0.30;;;;;;;24.45;32.84;100559.03;1695232;83;21016;-71
2022/06/16 10:49:07;;;;;;;1.25;0.42;;;;;;;24.49;32.06;100558.74;1675969;84;21099;-72
2022/06/16 10:51:36;;;;;;;0.40;0.23;;;;;;;24.48;31.95;100556.55;1698424;83;21079;-71
2022/06/16 10:54:22;;;;;;;0.93;0.40;;;;;;;24.47;31.57;100550.03;1685063;83;21065;-73
2022/06/16 10:56:50;;;;;;;0.53;0.20;;;;;;;24.49;31.67;100554.10;1667581;83;21045;-74
2022/06/16 10:59:26;;;;;;;4.03;0.65;;;;;;;24.48;31.70;100554.38;1643515;85;21064;-75
2022/06/16 11:02:15;;;;;;;4.83;0.37;;;;;;;24.47;32.03;100559.02;1697664;82;21048;-73
2022/06/16 11:04:43;;;;;;;0.82;0.20;;;;;;;24.44;31.98;100556.83;1701196;82;21565;-75
2022/06/16 11:07:13;;;;;;;0.28;0.20;;;;;;;24.43;31.58;100563.39;1703026;82;21086;-74
2022/06/16 11:09:40;;;;;;;3.65;0.35;;;;;;;24.35;31.36;100563.92;1667128;84;21362;-73
2022/06/16 11:12:20;;;;;;;1.37;0.30;;;;;;;24.13;31.41;100564.25;1647452;84;21644;-75
2022/06/16 11:15:00;;;;;;;2.92;0.33;;;;;;;23.99;32.31;100572.68;1674943;84;21139;-75
2022/06/16 11:17:42;;;;;;;0.80;0.28;;;;;;;23.93;32.56;100564.25;1677547;84;21052;-74
2022/06/16 11:20:35;;;;;;;2.90;0.30;;;;;;;23.91;33.05;100567.23;1673930;84;21028;-75
2022/06/16 11:23:29;;;;;;;0.88;0.40;;;;;;;23.94;32.90;100560.42;1651111;84;21101;-74
2022/06/16 11:26:07;;;;;;;1.10;0.47;;;;;;;24.00;33.54;100557.99;1611085;87;21079;-73
2022/06/16 11:28:47;;;;;;;1.30;0.30;;;;;;;24.09;32.53;100553.60;1612024;87;21157;-74
2022/06/16 11:31:23;;;;;;;1.55;0.25;;;;;;;24.09;32.77;100551.72;1585093;88;21048;-73
2022/06/16 11:34:15;;;;;;;1.30;0.20;;;;;;;24.06;33.11;100551.45;1646953;84;21580;-72
2022/06/16 11:37:01;;;;;;;1.55;0.20;;;;;;;24.01;33.46;100551.44;1665756;84;21067;-75
2022/06/16 11:40:06;;;;;;;;;;;;;;;24.01;33.00;100553.61;1670596;84;21071;-74
2022/06/16 11:42:53;;;;;;;0.57;0.42;;;;;;;23.97;32.73;100551.72;1657364;84;20280;-74
2022/06/16 11:45:44;;;;;;;1.80;0.45;;;;;;;23.81;33.23;100557.17;1601076;86;21556;-74
2022/06/16 11:48:43;;;;;;;0.62;0.20;;;;;;;23.78;32.81;100552.22;1632093;86;21097;-73
2022/06/16 11:52:01;;;;;;;0.40;0.10;;;;;;;23.74;32.66;100552.50;1587446;86;21109;-73
2022/06/16 11:54:42;;;;;;;2.42;0.35;;;;;;;23.71;32.51;100547.59;1634354;86;21588;-76
2022/06/16 11:57:17;;;;;;;0.30;0.15;;;;;;;23.74;32.44;100543.52;1639723;85;21047;-76
2022/06/16 12:00:03;;;;;;;1.32;0.23;;;;;;;23.72;32.68;100542.43;1619731;87;21165;-73
2022/06/16 12:02:43;;;;;;;0.93;0.25;;;;;;;23.71;32.88;100542.98;1625961;87;21119;-74
2022/06/16 12:05:26;;;;;;;1.25;0.30;;;;;;;23.73;33.01;100545.41;1612917;87;21145;-74
2022/06/16 12:08:14;;;;;;;0.47;0.20;;;;;;;23.81;32.67;100540.00;1676504;83;21022;-74
2022/06/16 12:10:58;;;;;;;0.20;0.20;;;;;;;23.84;32.63;100532.66;1644277;85;21081;-75
2022/06/16 12:13:43;;;;;;;1.32;0.20;;;;;;;23.84;32.18;100527.22;1601121;87;21081;-73
2022/06/16 12:16:41;;;;;;;1.85;0.28;;;;;;;23.86;32.56;100525.84;1619812;87;21179;-76
2022/06/16 12:19:19;;;;;;;0.20;0.10;;;;;;;23.97;32.22;100517.69;1606095;87;21489;-74
2022/06/16 12:21:54;;;;;;;0.40;0.40;;;;;;;24.14;32.08;100519.57;1645429;85;21123;-75
2022/06/16 12:24:30;;;;;;;0.85;0.20;;;;;;;24.25;31.65;100515.73;1631294;86;21133;-75
2022/06/16 12:27:11;;;;;;;1.00;0.23;;;;;;;24.27;31.53;100514.91;1677026;83;21074;-74
2022/06/16 12:30:18;;;;;;;0.88;0.37;;;;;;;24.29;31.83;100505.11;1683830;83;21600;-74